sensor_id;sensor_type;location;lat;lon;timestamp;pressure;altitude;pressure_sealevel;temperature;humidity
48888;BME280;42598;53.802;-1.632;2023-03-13T00:01:38;97838.36;;;9.41;100.00
48888;BME280;42598;53.802;-1.632;2023-03-13T00:04:06;97824.77;;;9.80;100.00
48888;BME280;42598;53.802;-1.632;2023-03-13T00:06:35;97826.96;;;8.90;100.00
48888;BME280;42598;53.802;-1.632;2023-03-13T00:09:04;97823.56;;;9.09;100.00
48888;BME280;42598;53.802;-1.632;2023-03-13T00:11:33;97810.04;;;10.10;100.00
48888;BME280;42598;53.802;-1.632;2023-03-13T00:14:02;97807.00;;;9.98;100.00
48888;BME280;42598;53.802;-1.632;2023-03-13T00:16:30;97790.44;;;10.80;100.00
48888;BME280;42598;53.802;-1.632;2023-03-13T00:18:58;97795.27;;;9.84;100.00
48888;BME280;42598;53.802;-1.632;2023-03-13T00:21:27;97793.47;;;9.69;100.00
48888;BME280;42598;53.802;-1.632;2023-03-13T00:23:55;97793.52;;;9.90;100.00
48888;BME280;42598;53.802;-1.632;2023-03-13T00:26:24;97775.30;;;9.83;100.00
48888;BME280;42598;53.802;-1.632;2023-03-13T00:28:52;97762.29;;;11.42;100.00
48888;BME280;42598;53.802;-1.632;2023-03-13T00:31:21;97760.94;;;11.55;100.00
48888;BME280;42598;53.802;-1.632;2023-03-13T00:33:51;97768.08;;;10.65;100.00
48888;BME280;42598;53.802;-1.632;2023-03-13T00:36:20;97766.17;;;8.84;100.00
48888;BME280;42598;53.802;-1.632;2023-03-13T00:38:49;97766.83;;;10.02;100.00
48888;BME280;42598;53.802;-1.632;2023-03-13T00:41:18;97749.61;;;10.66;100.00
48888;BME280;42598;53.802;-1.632;2023-03-13T00:43:46;97744.65;;;9.91;100.00
48888;BME280;42598;53.802;-1.632;2023-03-13T00:46:15;97738.70;;;10.18;100.00
48888;BME280;42598;53.802;-1.632;2023-03-13T00:48:43;97726.41;;;10.67;100.00
48888;BME280;42598;53.802;-1.632;2023-03-13T00:51:10;97714.63;;;10.01;100.00
48888;BME280;42598;53.802;-1.632;2023-03-13T00:53:37;97722.23;;;9.25;100.00
48888;BME280;42598;53.802;-1.632;2023-03-13T00:56:07;97713.64;;;9.38;100.00
48888;BME280;42598;53.802;-1.632;2023-03-13T00:58:37;97719.87;;;9.10;100.00
48888;BME280;42598;53.802;-1.632;2023-03-13T01:01:07;97714.75;;;9.51;100.00
48888;BME280;42598;53.802;-1.632;2023-03-13T01:03:36;97712.52;;;9.31;100.00
48888;BME280;42598;53.802;-1.632;2023-03-13T01:06:06;97725.92;;;9.41;100.00
48888;BME280;42598;53.802;-1.632;2023-03-13T01:08:34;97704.82;;;8.99;100.00
48888;BME280;42598;53.802;-1.632;2023-03-13T01:11:02;97705.08;;;8.41;100.00
48888;BME280;42598;53.802;-1.632;2023-03-13T01:13:31;97694.57;;;9.27;100.00
48888;BME280;42598;53.802;-1.632;2023-03-13T01:16:02;97662.44;;;8.70;100.00
48888;BME280;42598;53.802;-1.632;2023-03-13T01:18:30;97657.68;;;8.98;100.00
48888;BME280;42598;53.802;-1.632;2023-03-13T01:20:57;97650.09;;;9.38;100.00
48888;BME280;42598;53.802;-1.632;2023-03-13T01:23:25;97643.61;;;9.12;100.00
48888;BME280;42598;53.802;-1.632;2023-03-13T01:25:53;97643.88;;;9.67;100.00
48888;BME280;42598;53.802;-1.632;2023-03-13T01:28:21;97615.65;;;8.76;100.00
48888;BME280;42598;53.802;-1.632;2023-03-13T01:30:48;97620.70;;;9.08;100.00
48888;BME280;42598;53.802;-1.632;2023-03-13T01:33:15;97610.17;;;8.71;100.00
48888;BME280;42598;53.802;-1.632;2023-03-13T01:35:42;97614.24;;;9.23;100.00
48888;BME280;42598;53.802;-1.632;2023-03-13T01:38:10;97595.68;;;9.17;100.00
48888;BME280;42598;53.802;-1.632;2023-03-13T01:40:40;97587.29;;;8.90;100.00
48888;BME280;42598;53.802;-1.632;2023-03-13T01:43:19;97561.80;;;9.24;100.00
48888;BME280;42598;53.802;-1.632;2023-03-13T01:45:59;97557.32;;;9.59;100.00
48888;BME280;42598;53.802;-1.632;2023-03-13T01:48:35;97564.44;;;8.92;100.00
48888;BME280;42598;53.802;-1.632;2023-03-13T01:51:08;97526.92;;;9.28;100.00
48888;BME280;42598;53.802;-1.632;2023-03-13T01:53:41;97525.67;;;8.70;100.00
48888;BME280;42598;53.802;-1.632;2023-03-13T01:56:14;97515.34;;;8.97;100.00
48888;BME280;42598;53.802;-1.632;2023-03-13T01:58:43;97537.88;;;9.42;100.00
48888;BME280;42598;53.802;-1.632;2023-03-13T02:01:12;97525.80;;;9.43;100.00
48888;BME280;42598;53.802;-1.632;2023-03-13T02:03:41;97524.49;;;9.21;100.00
48888;BME280;42598;53.802;-1.632;2023-03-13T02:06:09;97532.09;;;8.91;100.00
48888;BME280;42598;53.802;-1.632;2023-03-13T02:08:41;97486.67;;;9.01;100.00
48888;BME280;42598;53.802;-1.632;2023-03-13T02:11:18;97473.06;;;9.59;100.00
48888;BME280;42598;53.802;-1.632;2023-03-13T02:13:48;97507.35;;;9.16;100.00
48888;BME280;42598;53.802;-1.632;2023-03-13T02:16:16;97484.65;;;8.51;100.00
48888;BME280;42598;53.802;-1.632;2023-03-13T02:18:45;97479.68;;;8.39;100.00
48888;BME280;42598;53.802;-1.632;2023-03-13T02:21:19;97483.16;;;8.73;100.00
48888;BME280;42598;53.802;-1.632;2023-03-13T02:23:55;97482.35;;;8.50;100.00
48888;BME280;42598;53.802;-1.632;2023-03-13T02:26:24;97475.18;;;8.73;100.00
48888;BME280;42598;53.802;-1.632;2023-03-13T02:28:52;97462.76;;;8.88;100.00
48888;BME280;42598;53.802;-1.632;2023-03-13T02:31:19;97438.24;;;8.97;100.00
48888;BME280;42598;53.802;-1.632;2023-03-13T02:33:46;97432.10;;;9.18;100.00
48888;BME280;42598;53.802;-1.632;2023-03-13T02:36:14;97421.91;;;8.99;100.00
48888;BME280;42598;53.802;-1.632;2023-03-13T02:38:44;97417.72;;;9.32;100.00
48888;BME280;42598;53.802;-1.632;2023-03-13T02:41:14;97434.48;;;8.70;100.00
48888;BME280;42598;53.802;-1.632;2023-03-13T02:43:42;97436.29;;;8.81;100.00
48888;BME280;42598;53.802;-1.632;2023-03-13T02:46:11;97423.66;;;8.69;100.00
48888;BME280;42598;53.802;-1.632;2023-03-13T02:48:40;97427.10;;;9.03;100.00
48888;BME280;42598;53.802;-1.632;2023-03-13T02:51:15;97428.33;;;8.75;100.00
48888;BME280;42598;53.802;-1.632;2023-03-13T02:53:43;97420.16;;;9.13;100.00
48888;BME280;42598;53.802;-1.632;2023-03-13T02:56:14;97399.95;;;8.76;100.00
48888;BME280;42598;53.802;-1.632;2023-03-13T02:58:43;97384.72;;;9.25;100.00
48888;BME280;42598;53.802;-1.632;2023-03-13T03:01:10;97384.26;;;8.77;100.00
48888;BME280;42598;53.802;-1.632;2023-03-13T03:03:37;97391.63;;;8.92;100.00
48888;BME280;42598;53.802;-1.632;2023-03-13T03:06:06;97387.93;;;9.09;100.00
48888;BME280;42598;53.802;-1.632;2023-03-13T03:08:34;97398.64;;;9.30;100.00
48888;BME280;42598;53.802;-1.632;2023-03-13T03:11:01;97379.98;;;9.18;100.00
48888;BME280;42598;53.802;-1.632;2023-03-13T03:13:30;97378.80;;;9.59;100.00
48888;BME280;42598;53.802;-1.632;2023-03-13T03:15:57;97376.93;;;9.03;100.00
48888;BME280;42598;53.802;-1.632;2023-03-13T03:18:24;97374.24;;;9.14;100.00
48888;BME280;42598;53.802;-1.632;2023-03-13T03:20:51;97371.94;;;9.33;100.00
48888;BME280;42598;53.802;-1.632;2023-03-13T03:23:17;97364.38;;;9.31;100.00
48888;BME280;42598;53.802;-1.632;2023-03-13T03:25:44;97348.14;;;9.58;100.00
48888;BME280;42598;53.802;-1.632;2023-03-13T03:28:11;97345.91;;;9.66;100.00
48888;BME280;42598;53.802;-1.632;2023-03-13T03:30:38;97345.26;;;9.41;100.00
48888;BME280;42598;53.802;-1.632;2023-03-13T03:33:05;97354.70;;;9.28;100.00
48888;BME280;42598;53.802;-1.632;2023-03-13T03:35:32;97333.46;;;8.96;100.00
48888;BME280;42598;53.802;-1.632;2023-03-13T03:37:59;97326.43;;;9.17;100.00
48888;BME280;42598;53.802;-1.632;2023-03-13T03:40:26;97326.71;;;9.30;100.00
48888;BME280;42598;53.802;-1.632;2023-03-13T03:42:53;97347.94;;;9.37;100.00
48888;BME280;42598;53.802;-1.632;2023-03-13T03:45:20;97337.44;;;9.07;100.00
48888;BME280;42598;53.802;-1.632;2023-03-13T03:47:47;97327.19;;;9.20;100.00
48888;BME280;42598;53.802;-1.632;2023-03-13T03:50:14;97332.06;;;9.04;100.00
48888;BME280;42598;53.802;-1.632;2023-03-13T03:52:42;97311.09;;;9.01;100.00
48888;BME280;42598;53.802;-1.632;2023-03-13T03:55:09;97312.18;;;8.79;100.00
48888;BME280;42598;53.802;-1.632;2023-03-13T03:57:36;97308.94;;;9.34;100.00
48888;BME280;42598;53.802;-1.632;2023-03-13T04:00:05;97326.68;;;8.91;100.00
48888;BME280;42598;53.802;-1.632;2023-03-13T04:02:32;97314.97;;;9.10;100.00
48888;BME280;42598;53.802;-1.632;2023-03-13T04:05:00;97306.08;;;9.21;100.00
48888;BME280;42598;53.802;-1.632;2023-03-13T04:07:26;97300.75;;;9.08;100.00
48888;BME280;42598;53.802;-1.632;2023-03-13T04:09:53;97290.43;;;9.19;100.00
48888;BME280;42598;53.802;-1.632;2023-03-13T04:12:20;97312.49;;;9.11;100.00
48888;BME280;42598;53.802;-1.632;2023-03-13T04:14:47;97299.18;;;8.77;100.00
48888;BME280;42598;53.802;-1.632;2023-03-13T04:17:14;97288.13;;;8.69;100.00
48888;BME280;42598;53.802;-1.632;2023-03-13T04:19:41;97301.95;;;9.02;100.00
48888;BME280;42598;53.802;-1.632;2023-03-13T04:22:08;97299.32;;;9.07;100.00
48888;BME280;42598;53.802;-1.632;2023-03-13T04:24:36;97301.20;;;8.94;100.00
48888;BME280;42598;53.802;-1.632;2023-03-13T04:27:03;97282.58;;;8.92;100.00
48888;BME280;42598;53.802;-1.632;2023-03-13T04:29:30;97288.73;;;8.75;100.00
48888;BME280;42598;53.802;-1.632;2023-03-13T04:31:57;97282.18;;;9.21;100.00
48888;BME280;42598;53.802;-1.632;2023-03-13T04:34:23;97258.97;;;9.05;100.00
48888;BME280;42598;53.802;-1.632;2023-03-13T04:36:50;97256.15;;;9.06;100.00
48888;BME280;42598;53.802;-1.632;2023-03-13T04:39:17;97249.22;;;8.98;100.00
48888;BME280;42598;53.802;-1.632;2023-03-13T04:41:44;97244.93;;;9.26;100.00
48888;BME280;42598;53.802;-1.632;2023-03-13T04:44:10;97256.70;;;9.05;100.00
48888;BME280;42598;53.802;-1.632;2023-03-13T04:46:37;97244.06;;;8.78;100.00
48888;BME280;42598;53.802;-1.632;2023-03-13T04:49:04;97219.57;;;8.60;100.00
48888;BME280;42598;53.802;-1.632;2023-03-13T04:51:31;97231.43;;;8.66;100.00
48888;BME280;42598;53.802;-1.632;2023-03-13T04:53:57;97227.37;;;9.00;100.00
48888;BME280;42598;53.802;-1.632;2023-03-13T04:56:26;97213.95;;;8.83;100.00
48888;BME280;42598;53.802;-1.632;2023-03-13T04:58:54;97203.06;;;9.24;100.00
48888;BME280;42598;53.802;-1.632;2023-03-13T05:01:22;97216.61;;;8.76;100.00
48888;BME280;42598;53.802;-1.632;2023-03-13T05:03:49;97207.12;;;8.47;100.00
48888;BME280;42598;53.802;-1.632;2023-03-13T05:06:16;97191.91;;;8.84;100.00
48888;BME280;42598;53.802;-1.632;2023-03-13T05:08:44;97204.23;;;8.45;100.00
48888;BME280;42598;53.802;-1.632;2023-03-13T05:11:11;97170.11;;;8.26;100.00
48888;BME280;42598;53.802;-1.632;2023-03-13T05:13:38;97167.30;;;8.75;100.00
48888;BME280;42598;53.802;-1.632;2023-03-13T05:16:05;97170.85;;;9.00;100.00
48888;BME280;42598;53.802;-1.632;2023-03-13T05:18:32;97171.25;;;8.20;100.00
48888;BME280;42598;53.802;-1.632;2023-03-13T05:20:59;97159.44;;;8.46;100.00
48888;BME280;42598;53.802;-1.632;2023-03-13T05:23:26;97167.80;;;8.99;100.00
48888;BME280;42598;53.802;-1.632;2023-03-13T05:25:53;97175.19;;;8.82;100.00
48888;BME280;42598;53.802;-1.632;2023-03-13T05:28:20;97187.57;;;8.82;100.00
48888;BME280;42598;53.802;-1.632;2023-03-13T05:30:47;97179.79;;;8.55;100.00
48888;BME280;42598;53.802;-1.632;2023-03-13T05:33:15;97212.54;;;7.95;100.00
48888;BME280;42598;53.802;-1.632;2023-03-13T05:35:43;97154.51;;;7.97;100.00
48888;BME280;42598;53.802;-1.632;2023-03-13T05:38:10;97140.60;;;7.36;100.00
48888;BME280;42598;53.802;-1.632;2023-03-13T05:40:38;97156.07;;;8.41;100.00
48888;BME280;42598;53.802;-1.632;2023-03-13T05:43:05;97161.98;;;8.28;100.00
48888;BME280;42598;53.802;-1.632;2023-03-13T05:45:35;97180.80;;;8.47;100.00
48888;BME280;42598;53.802;-1.632;2023-03-13T05:48:03;97188.92;;;8.03;100.00
48888;BME280;42598;53.802;-1.632;2023-03-13T05:50:31;97196.62;;;7.59;100.00
48888;BME280;42598;53.802;-1.632;2023-03-13T05:52:58;97181.76;;;7.60;100.00
48888;BME280;42598;53.802;-1.632;2023-03-13T05:55:26;97143.56;;;7.91;100.00
48888;BME280;42598;53.802;-1.632;2023-03-13T05:57:59;97155.34;;;7.52;100.00
48888;BME280;42598;53.802;-1.632;2023-03-13T06:00:26;97157.63;;;7.46;100.00
48888;BME280;42598;53.802;-1.632;2023-03-13T06:02:54;97136.05;;;7.70;100.00
48888;BME280;42598;53.802;-1.632;2023-03-13T06:05:21;97117.72;;;7.90;100.00
48888;BME280;42598;53.802;-1.632;2023-03-13T06:07:48;97132.27;;;7.50;100.00
48888;BME280;42598;53.802;-1.632;2023-03-13T06:10:16;97113.63;;;7.43;100.00
48888;BME280;42598;53.802;-1.632;2023-03-13T06:12:43;97115.89;;;7.04;100.00
48888;BME280;42598;53.802;-1.632;2023-03-13T06:15:10;97098.62;;;6.98;100.00
48888;BME280;42598;53.802;-1.632;2023-03-13T06:17:39;97107.60;;;7.30;100.00
48888;BME280;42598;53.802;-1.632;2023-03-13T06:20:12;97111.88;;;7.16;100.00
48888;BME280;42598;53.802;-1.632;2023-03-13T06:22:40;97078.85;;;7.21;100.00
48888;BME280;42598;53.802;-1.632;2023-03-13T06:25:09;97104.88;;;6.76;100.00
48888;BME280;42598;53.802;-1.632;2023-03-13T06:27:36;97096.09;;;7.31;100.00
48888;BME280;42598;53.802;-1.632;2023-03-13T06:30:04;97099.23;;;7.45;100.00
48888;BME280;42598;53.802;-1.632;2023-03-13T06:32:31;97087.38;;;7.78;100.00
48888;BME280;42598;53.802;-1.632;2023-03-13T06:34:58;97088.41;;;7.66;100.00
48888;BME280;42598;53.802;-1.632;2023-03-13T06:37:25;97099.49;;;7.29;100.00
48888;BME280;42598;53.802;-1.632;2023-03-13T06:39:52;97092.90;;;7.56;100.00
48888;BME280;42598;53.802;-1.632;2023-03-13T06:42:20;97099.05;;;7.58;100.00
48888;BME280;42598;53.802;-1.632;2023-03-13T06:44:46;97097.86;;;6.98;100.00
48888;BME280;42598;53.802;-1.632;2023-03-13T06:47:13;97091.87;;;7.44;100.00
48888;BME280;42598;53.802;-1.632;2023-03-13T06:49:40;97100.65;;;7.28;100.00
48888;BME280;42598;53.802;-1.632;2023-03-13T06:52:07;97092.40;;;7.01;100.00
48888;BME280;42598;53.802;-1.632;2023-03-13T06:54:48;97109.32;;;7.09;100.00
48888;BME280;42598;53.802;-1.632;2023-03-13T06:57:15;97086.95;;;6.78;100.00
48888;BME280;42598;53.802;-1.632;2023-03-13T06:59:42;97080.62;;;6.67;100.00
48888;BME280;42598;53.802;-1.632;2023-03-13T07:02:10;97084.43;;;6.63;100.00
48888;BME280;42598;53.802;-1.632;2023-03-13T07:04:38;97081.48;;;6.74;100.00
48888;BME280;42598;53.802;-1.632;2023-03-13T07:07:05;97098.54;;;7.05;100.00
48888;BME280;42598;53.802;-1.632;2023-03-13T07:09:32;97074.31;;;6.63;100.00
48888;BME280;42598;53.802;-1.632;2023-03-13T07:11:59;97076.99;;;6.99;100.00
48888;BME280;42598;53.802;-1.632;2023-03-13T07:14:26;97086.82;;;6.74;100.00
48888;BME280;42598;53.802;-1.632;2023-03-13T07:16:53;97067.87;;;6.67;100.00
48888;BME280;42598;53.802;-1.632;2023-03-13T07:19:20;97056.82;;;7.29;100.00
48888;BME280;42598;53.802;-1.632;2023-03-13T07:21:48;97045.00;;;7.15;100.00
48888;BME280;42598;53.802;-1.632;2023-03-13T07:24:15;97050.84;;;6.92;100.00
48888;BME280;42598;53.802;-1.632;2023-03-13T07:26:43;97102.95;;;7.19;100.00
48888;BME280;42598;53.802;-1.632;2023-03-13T07:29:10;97080.16;;;6.88;100.00
48888;BME280;42598;53.802;-1.632;2023-03-13T07:31:37;97066.46;;;7.09;100.00
48888;BME280;42598;53.802;-1.632;2023-03-13T07:34:04;97054.80;;;7.29;100.00
48888;BME280;42598;53.802;-1.632;2023-03-13T07:36:31;97044.42;;;6.98;100.00
48888;BME280;42598;53.802;-1.632;2023-03-13T07:38:58;97066.75;;;7.06;100.00
48888;BME280;42598;53.802;-1.632;2023-03-13T07:41:24;97064.46;;;7.02;100.00
48888;BME280;42598;53.802;-1.632;2023-03-13T07:43:51;97077.77;;;7.09;100.00
48888;BME280;42598;53.802;-1.632;2023-03-13T07:46:23;97049.46;;;7.14;100.00
48888;BME280;42598;53.802;-1.632;2023-03-13T07:48:52;97059.25;;;7.26;100.00
48888;BME280;42598;53.802;-1.632;2023-03-13T07:51:21;97057.66;;;7.80;100.00
48888;BME280;42598;53.802;-1.632;2023-03-13T07:53:49;97054.21;;;6.83;100.00
48888;BME280;42598;53.802;-1.632;2023-03-13T07:56:19;97053.41;;;7.25;100.00
48888;BME280;42598;53.802;-1.632;2023-03-13T07:58:48;97044.34;;;7.21;100.00
48888;BME280;42598;53.802;-1.632;2023-03-13T08:01:18;97044.24;;;7.25;100.00
48888;BME280;42598;53.802;-1.632;2023-03-13T08:03:46;97048.36;;;6.96;100.00
48888;BME280;42598;53.802;-1.632;2023-03-13T08:06:14;97047.70;;;7.95;100.00
48888;BME280;42598;53.802;-1.632;2023-03-13T08:08:43;97043.49;;;7.37;100.00
48888;BME280;42598;53.802;-1.632;2023-03-13T08:11:11;97049.64;;;7.03;100.00
48888;BME280;42598;53.802;-1.632;2023-03-13T08:13:39;97045.96;;;6.98;100.00
48888;BME280;42598;53.802;-1.632;2023-03-13T08:16:09;97035.32;;;7.27;100.00
48888;BME280;42598;53.802;-1.632;2023-03-13T08:18:38;97036.20;;;7.11;100.00
48888;BME280;42598;53.802;-1.632;2023-03-13T08:21:07;97015.93;;;7.69;100.00
48888;BME280;42598;53.802;-1.632;2023-03-13T08:23:35;97004.12;;;7.63;100.00
48888;BME280;42598;53.802;-1.632;2023-03-13T08:26:04;97012.36;;;8.61;100.00
48888;BME280;42598;53.802;-1.632;2023-03-13T08:28:32;97007.80;;;7.58;100.00
48888;BME280;42598;53.802;-1.632;2023-03-13T08:31:06;97016.36;;;7.51;100.00
48888;BME280;42598;53.802;-1.632;2023-03-13T08:33:33;97030.11;;;7.72;100.00
48888;BME280;42598;53.802;-1.632;2023-03-13T08:36:09;96993.42;;;7.48;100.00
48888;BME280;42598;53.802;-1.632;2023-03-13T08:38:36;97002.58;;;7.65;100.00
48888;BME280;42598;53.802;-1.632;2023-03-13T08:41:05;96995.15;;;7.87;100.00
48888;BME280;42598;53.802;-1.632;2023-03-13T08:43:32;97004.51;;;7.54;100.00
48888;BME280;42598;53.802;-1.632;2023-03-13T08:46:00;97002.30;;;7.74;100.00
48888;BME280;42598;53.802;-1.632;2023-03-13T08:48:27;97014.08;;;7.69;100.00
48888;BME280;42598;53.802;-1.632;2023-03-13T08:51:02;97009.70;;;7.63;100.00
48888;BME280;42598;53.802;-1.632;2023-03-13T08:53:30;97015.34;;;7.24;100.00
48888;BME280;42598;53.802;-1.632;2023-03-13T08:55:57;97035.64;;;7.72;100.00
48888;BME280;42598;53.802;-1.632;2023-03-13T08:58:26;97024.12;;;7.07;100.00
48888;BME280;42598;53.802;-1.632;2023-03-13T09:00:53;97022.53;;;7.19;100.00
48888;BME280;42598;53.802;-1.632;2023-03-13T09:03:20;97022.47;;;7.62;100.00
48888;BME280;42598;53.802;-1.632;2023-03-13T09:05:48;97015.82;;;7.76;100.00
48888;BME280;42598;53.802;-1.632;2023-03-13T09:08:14;97007.49;;;7.68;100.00
48888;BME280;42598;53.802;-1.632;2023-03-13T09:10:42;97020.51;;;8.18;100.00
48888;BME280;42598;53.802;-1.632;2023-03-13T09:13:10;97021.24;;;8.20;100.00
48888;BME280;42598;53.802;-1.632;2023-03-13T09:15:37;97013.39;;;8.26;100.00
48888;BME280;42598;53.802;-1.632;2023-03-13T09:18:05;97030.24;;;7.86;100.00
48888;BME280;42598;53.802;-1.632;2023-03-13T09:20:31;97013.37;;;8.00;100.00
48888;BME280;42598;53.802;-1.632;2023-03-13T09:22:58;97022.96;;;7.91;100.00
48888;BME280;42598;53.802;-1.632;2023-03-13T09:25:25;97009.14;;;8.13;100.00
48888;BME280;42598;53.802;-1.632;2023-03-13T09:27:53;97004.29;;;8.04;100.00
48888;BME280;42598;53.802;-1.632;2023-03-13T09:30:20;97012.63;;;8.06;100.00
48888;BME280;42598;53.802;-1.632;2023-03-13T09:32:47;96999.48;;;8.59;100.00
48888;BME280;42598;53.802;-1.632;2023-03-13T09:35:15;96989.46;;;8.37;100.00
48888;BME280;42598;53.802;-1.632;2023-03-13T09:37:42;96995.74;;;8.56;100.00
48888;BME280;42598;53.802;-1.632;2023-03-13T09:40:14;96996.10;;;8.38;100.00
48888;BME280;42598;53.802;-1.632;2023-03-13T09:42:46;96996.28;;;8.09;100.00
48888;BME280;42598;53.802;-1.632;2023-03-13T09:45:17;96990.05;;;8.10;100.00
48888;BME280;42598;53.802;-1.632;2023-03-13T09:47:49;96990.62;;;8.30;100.00
48888;BME280;42598;53.802;-1.632;2023-03-13T09:50:22;96987.37;;;7.91;100.00
48888;BME280;42598;53.802;-1.632;2023-03-13T09:52:55;97003.83;;;7.92;100.00
48888;BME280;42598;53.802;-1.632;2023-03-13T09:55:26;96987.77;;;7.99;100.00
48888;BME280;42598;53.802;-1.632;2023-03-13T09:57:56;96977.08;;;8.24;100.00
48888;BME280;42598;53.802;-1.632;2023-03-13T10:00:28;96986.81;;;7.88;100.00
48888;BME280;42598;53.802;-1.632;2023-03-13T10:02:59;96979.85;;;7.73;100.00
48888;BME280;42598;53.802;-1.632;2023-03-13T10:05:29;96986.56;;;7.75;100.00
48888;BME280;42598;53.802;-1.632;2023-03-13T10:08:00;96996.56;;;7.66;100.00
48888;BME280;42598;53.802;-1.632;2023-03-13T10:10:39;96988.65;;;7.80;100.00
48888;BME280;42598;53.802;-1.632;2023-03-13T10:13:15;96978.23;;;8.26;100.00
48888;BME280;42598;53.802;-1.632;2023-03-13T10:15:49;96984.58;;;8.44;100.00
48888;BME280;42598;53.802;-1.632;2023-03-13T10:18:19;96978.69;;;8.57;100.00
48888;BME280;42598;53.802;-1.632;2023-03-13T10:20:49;96991.82;;;8.23;100.00
48888;BME280;42598;53.802;-1.632;2023-03-13T10:23:22;96987.70;;;8.21;100.00
48888;BME280;42598;53.802;-1.632;2023-03-13T10:25:52;96982.47;;;8.39;100.00
48888;BME280;42598;53.802;-1.632;2023-03-13T10:28:19;96976.35;;;8.08;100.00
48888;BME280;42598;53.802;-1.632;2023-03-13T10:30:47;96976.84;;;8.01;100.00
48888;BME280;42598;53.802;-1.632;2023-03-13T10:33:21;96970.87;;;8.38;100.00
48888;BME280;42598;53.802;-1.632;2023-03-13T10:36:00;96976.43;;;8.59;100.00
48888;BME280;42598;53.802;-1.632;2023-03-13T10:38:27;96972.08;;;8.46;100.00
48888;BME280;42598;53.802;-1.632;2023-03-13T10:40:56;96977.24;;;8.93;100.00
48888;BME280;42598;53.802;-1.632;2023-03-13T10:43:26;96984.65;;;8.37;100.00
48888;BME280;42598;53.802;-1.632;2023-03-13T10:45:54;96984.23;;;8.90;100.00
48888;BME280;42598;53.802;-1.632;2023-03-13T10:48:23;96981.92;;;8.14;100.00
48888;BME280;42598;53.802;-1.632;2023-03-13T10:50:53;96984.50;;;8.27;100.00
48888;BME280;42598;53.802;-1.632;2023-03-13T10:53:24;96988.77;;;8.69;100.00
48888;BME280;42598;53.802;-1.632;2023-03-13T10:55:52;96981.44;;;8.93;100.00
48888;BME280;42598;53.802;-1.632;2023-03-13T10:58:23;96980.71;;;8.72;100.00
48888;BME280;42598;53.802;-1.632;2023-03-13T11:01:09;96989.85;;;8.22;100.00
48888;BME280;42598;53.802;-1.632;2023-03-13T11:03:41;96982.43;;;8.40;100.00
48888;BME280;42598;53.802;-1.632;2023-03-13T11:06:23;96979.42;;;8.34;100.00
48888;BME280;42598;53.802;-1.632;2023-03-13T11:08:59;96982.59;;;8.49;100.00
48888;BME280;42598;53.802;-1.632;2023-03-13T11:11:26;96985.16;;;8.73;100.00
48888;BME280;42598;53.802;-1.632;2023-03-13T11:13:53;96995.01;;;8.39;100.00
48888;BME280;42598;53.802;-1.632;2023-03-13T11:16:21;96997.11;;;8.67;100.00
48888;BME280;42598;53.802;-1.632;2023-03-13T11:19:07;96984.98;;;8.81;100.00
48888;BME280;42598;53.802;-1.632;2023-03-13T11:21:43;96991.15;;;8.95;100.00
48888;BME280;42598;53.802;-1.632;2023-03-13T11:24:16;96979.81;;;8.41;100.00
48888;BME280;42598;53.802;-1.632;2023-03-13T11:26:52;96986.29;;;8.75;100.00
48888;BME280;42598;53.802;-1.632;2023-03-13T11:29:27;96986.59;;;9.07;100.00
48888;BME280;42598;53.802;-1.632;2023-03-13T11:32:01;96996.48;;;9.36;100.00
48888;BME280;42598;53.802;-1.632;2023-03-13T11:34:36;97012.91;;;9.30;100.00
48888;BME280;42598;53.802;-1.632;2023-03-13T11:37:10;96981.89;;;9.48;100.00
48888;BME280;42598;53.802;-1.632;2023-03-13T11:39:46;97004.43;;;8.98;100.00
48888;BME280;42598;53.802;-1.632;2023-03-13T11:42:39;97000.50;;;9.16;100.00
48888;BME280;42598;53.802;-1.632;2023-03-13T11:45:20;97020.44;;;8.79;100.00
48888;BME280;42598;53.802;-1.632;2023-03-13T11:47:56;97006.60;;;9.17;100.00
48888;BME280;42598;53.802;-1.632;2023-03-13T11:50:35;96994.04;;;9.10;100.00
48888;BME280;42598;53.802;-1.632;2023-03-13T11:53:14;96988.56;;;9.02;100.00
48888;BME280;42598;53.802;-1.632;2023-03-13T11:55:54;97013.65;;;9.03;100.00
48888;BME280;42598;53.802;-1.632;2023-03-13T11:58:31;96985.73;;;8.96;100.00
48888;BME280;42598;53.802;-1.632;2023-03-13T12:01:05;96998.10;;;10.03;100.00
48888;BME280;42598;53.802;-1.632;2023-03-13T12:03:38;96998.22;;;9.66;100.00
48888;BME280;42598;53.802;-1.632;2023-03-13T12:06:15;97011.93;;;9.68;100.00
48888;BME280;42598;53.802;-1.632;2023-03-13T12:08:51;97001.58;;;9.56;100.00
48888;BME280;42598;53.802;-1.632;2023-03-13T12:11:22;96992.58;;;9.30;100.00
48888;BME280;42598;53.802;-1.632;2023-03-13T12:13:57;96986.24;;;9.53;100.00
48888;BME280;42598;53.802;-1.632;2023-03-13T12:16:37;96999.43;;;9.14;100.00
48888;BME280;42598;53.802;-1.632;2023-03-13T12:19:10;96978.55;;;9.91;100.00
48888;BME280;42598;53.802;-1.632;2023-03-13T12:21:42;96987.29;;;9.77;100.00
48888;BME280;42598;53.802;-1.632;2023-03-13T12:24:20;97016.89;;;9.61;100.00
48888;BME280;42598;53.802;-1.632;2023-03-13T12:26:52;96998.25;;;10.45;100.00
48888;BME280;42598;53.802;-1.632;2023-03-13T12:29:29;97005.66;;;9.79;100.00
48888;BME280;42598;53.802;-1.632;2023-03-13T12:32:06;97021.38;;;9.76;100.00
48888;BME280;42598;53.802;-1.632;2023-03-13T12:34:45;97022.78;;;9.98;100.00
48888;BME280;42598;53.802;-1.632;2023-03-13T12:37:25;97018.70;;;9.74;100.00
48888;BME280;42598;53.802;-1.632;2023-03-13T12:39:58;97019.83;;;9.10;100.00
48888;BME280;42598;53.802;-1.632;2023-03-13T12:42:37;97028.03;;;9.23;100.00
48888;BME280;42598;53.802;-1.632;2023-03-13T12:45:15;97014.75;;;10.01;100.00
48888;BME280;42598;53.802;-1.632;2023-03-13T12:48:00;97028.83;;;10.21;100.00
48888;BME280;42598;53.802;-1.632;2023-03-13T12:50:41;97005.54;;;10.84;100.00
48888;BME280;42598;53.802;-1.632;2023-03-13T12:53:25;96996.57;;;10.96;100.00
48888;BME280;42598;53.802;-1.632;2023-03-13T12:56:11;97010.11;;;10.77;100.00
48888;BME280;42598;53.802;-1.632;2023-03-13T12:58:47;97010.27;;;9.92;100.00
48888;BME280;42598;53.802;-1.632;2023-03-13T13:01:26;97010.77;;;9.95;100.00
48888;BME280;42598;53.802;-1.632;2023-03-13T13:03:58;97019.11;;;10.03;100.00